createdAt,value
2024-05-09T00:01:29.888Z,12.15
2024-05-09T00:03:29.896Z,12.12
2024-05-09T00:05:29.967Z,12.03
2024-05-09T00:07:31.119Z,11.98
2024-05-09T00:09:29.809Z,11.87
2024-05-09T00:11:29.932Z,11.88
2024-05-09T00:13:29.848Z,11.90
2024-05-09T00:15:29.878Z,11.92
2024-05-09T00:17:30.006Z,11.96
2024-05-09T00:19:29.888Z,12.00
2024-05-09T00:21:29.859Z,11.97
2024-05-09T00:23:29.918Z,12.03
2024-05-09T00:25:29.848Z,11.97
2024-05-09T00:27:29.854Z,11.97
2024-05-09T00:29:29.956Z,11.97
2024-05-09T00:32:30.000Z,11.85
2024-05-09T00:34:30.002Z,11.82
2024-05-09T00:36:29.920Z,11.82
2024-05-09T00:38:30.057Z,11.85
2024-05-09T00:40:37.701Z,11.89
2024-05-09T00:41:29.966Z,11.93
2024-05-09T00:43:29.944Z,11.95
2024-05-09T00:45:29.905Z,11.92
2024-05-09T00:47:30.106Z,11.97
2024-05-09T00:49:30.052Z,12.04
2024-05-09T00:51:29.973Z,11.91
2024-05-09T00:53:30.041Z,11.94
2024-05-09T00:55:29.940Z,11.98
2024-05-09T00:57:29.976Z,12.02
2024-05-09T00:59:30.225Z,12.10
2024-05-09T01:02:30.044Z,12.17
2024-05-09T01:04:30.028Z,12.29
2024-05-09T01:06:29.955Z,12.37
2024-05-09T01:08:30.077Z,12.38
2024-05-09T01:10:34.181Z,12.34
2024-05-09T01:13:29.969Z,12.37
2024-05-09T01:15:30.013Z,12.44
2024-05-09T01:17:30.230Z,12.50
2024-05-09T01:19:30.131Z,12.56
2024-05-09T01:21:31.302Z,12.67
2024-05-09T01:23:30.124Z,12.72
2024-05-09T01:25:30.049Z,12.79
2024-05-09T01:27:30.005Z,12.81
2024-05-09T01:29:30.101Z,12.84
2024-05-09T01:31:30.069Z,12.89
2024-05-09T01:33:30.295Z,12.91
2024-05-09T01:35:30.049Z,12.92
2024-05-09T01:37:30.040Z,12.90
2024-05-09T01:39:30.035Z,12.94
2024-05-09T01:43:30.080Z,12.98
2024-05-09T01:46:30.089Z,13.01
2024-05-09T01:48:30.181Z,13.09
2024-05-09T01:50:38.069Z,13.12
2024-05-09T01:52:30.090Z,13.10
2024-05-09T01:54:30.096Z,13.05
2024-05-09T01:56:30.164Z,13.05
2024-05-09T01:58:31.659Z,12.99
2024-05-09T02:00:38.162Z,12.93
2024-05-09T02:02:30.233Z,12.92
2024-05-09T02:04:30.236Z,12.95
2024-05-09T02:06:30.108Z,12.93
2024-05-09T02:08:30.208Z,12.91
2024-05-09T02:10:32.790Z,12.85
2024-05-09T02:12:30.180Z,12.88
2024-05-09T02:14:30.200Z,12.86
2024-05-09T02:16:30.159Z,12.94
2024-05-09T02:18:30.181Z,12.93
2024-05-09T02:20:35.819Z,12.85
2024-05-09T02:24:30.153Z,12.90
2024-05-09T02:26:30.246Z,12.96
2024-05-09T02:29:30.238Z,12.88
2024-05-09T02:31:30.183Z,12.85
2024-05-09T02:33:30.435Z,12.78
2024-05-09T02:35:31.606Z,12.73
2024-05-09T02:37:30.187Z,12.74
2024-05-09T02:39:30.217Z,12.77
2024-05-09T02:41:30.304Z,12.82
2024-05-09T02:43:30.231Z,12.85
2024-05-09T02:45:30.257Z,12.85
2024-05-09T02:47:30.453Z,12.87
2024-05-09T02:49:30.274Z,12.89
2024-05-09T02:51:30.251Z,12.82
2024-05-09T02:54:30.236Z,12.81
2024-05-09T02:56:30.362Z,12.83
2024-05-09T02:58:30.279Z,12.77
2024-05-09T03:00:37.934Z,12.78
2024-05-09T03:01:30.370Z,12.81
2024-05-09T03:04:30.333Z,12.86
2024-05-09T03:06:30.304Z,12.91
2024-05-09T03:08:30.323Z,12.90
2024-05-09T03:10:35.682Z,12.94
2024-05-09T03:12:31.666Z,12.93
2024-05-09T03:14:30.335Z,12.92
2024-05-09T03:16:30.291Z,12.97
2024-05-09T03:18:30.398Z,13.03
2024-05-09T03:21:30.306Z,13.07
2024-05-09T03:23:30.347Z,13.05
2024-05-09T03:25:30.361Z,13.09
2024-05-09T03:27:30.345Z,13.09
2024-05-09T03:29:30.482Z,13.05
2024-05-09T03:31:30.330Z,12.88
2024-05-09T03:34:30.343Z,12.89
2024-05-09T03:36:30.344Z,12.91
2024-05-09T03:38:30.488Z,12.84
2024-05-09T03:40:31.168Z,12.77
2024-05-09T03:42:30.353Z,12.72
2024-05-09T03:44:30.554Z,12.71
2024-05-09T03:46:30.364Z,12.82
2024-05-09T03:48:30.509Z,12.72
2024-05-09T03:50:35.236Z,12.69
2024-05-09T03:52:30.383Z,12.65
2024-05-09T03:54:30.381Z,12.69
2024-05-09T03:56:30.471Z,12.63
2024-05-09T03:58:30.419Z,12.59
2024-05-09T04:00:36.853Z,12.62
2024-05-09T04:02:30.525Z,12.61
2024-05-09T04:04:30.537Z,12.65
2024-05-09T04:06:30.437Z,12.66
2024-05-09T04:08:30.423Z,12.67
2024-05-09T04:10:33.364Z,12.52
2024-05-09T04:12:30.613Z,12.48
2024-05-09T04:14:30.524Z,12.55
2024-05-09T04:16:30.423Z,12.51
2024-05-09T04:18:30.503Z,12.54
2024-05-09T04:21:30.438Z,12.55
2024-05-09T04:23:30.562Z,12.57
2024-05-09T04:25:30.475Z,12.63
2024-05-09T04:27:30.492Z,12.61
2024-05-09T04:29:30.644Z,12.56
2024-05-09T04:31:30.478Z,12.66
2024-05-09T04:33:30.927Z,12.62
2024-05-09T04:35:30.599Z,12.57
2024-05-09T04:39:30.508Z,12.63
2024-05-09T04:41:30.594Z,12.71
2024-05-09T04:43:30.523Z,12.73
2024-05-09T04:45:30.647Z,12.69
2024-05-09T04:47:30.709Z,12.77
2024-05-09T04:49:30.664Z,12.90
2024-05-09T04:51:30.553Z,13.00
2024-05-09T04:53:30.636Z,13.06
2024-05-09T04:55:30.599Z,12.99
2024-05-09T04:57:30.567Z,13.00
2024-05-09T04:59:30.670Z,12.98
2024-05-09T05:01:30.660Z,13.04
2024-05-09T05:03:32.338Z,13.07
2024-05-09T05:05:30.639Z,13.12
2024-05-09T05:07:30.549Z,13.20
2024-05-09T05:09:30.573Z,13.23
2024-05-09T05:11:30.802Z,13.26
2024-05-09T05:13:30.575Z,13.30
2024-05-09T05:16:30.619Z,13.29
2024-05-09T05:18:30.697Z,13.30
2024-05-09T05:20:33.690Z,13.16
2024-05-09T05:22:30.636Z,13.08
2024-05-09T05:24:30.630Z,12.96
2024-05-09T05:26:30.625Z,12.89
2024-05-09T05:28:30.600Z,12.95
2024-05-09T05:30:34.559Z,13.05
2024-05-09T05:33:30.870Z,13.08
2024-05-09T05:35:30.764Z,13.12
2024-05-09T05:37:30.672Z,13.17
2024-05-09T05:39:30.648Z,13.23
2024-05-09T05:41:30.699Z,13.31
2024-05-09T05:43:30.677Z,13.33
2024-05-09T05:46:30.653Z,13.31
2024-05-09T05:49:30.683Z,13.23
2024-05-09T05:51:30.668Z,13.29
2024-05-09T05:53:30.746Z,13.36
2024-05-09T05:55:30.705Z,13.25
2024-05-09T05:57:30.706Z,13.21
2024-05-09T05:59:30.699Z,13.18
2024-05-09T06:01:30.818Z,13.17
2024-05-09T06:03:30.790Z,13.04
2024-05-09T06:05:30.766Z,13.02
2024-05-09T06:07:30.712Z,13.05
2024-05-09T06:09:30.722Z,13.16
2024-05-09T06:11:30.860Z,13.24
2024-05-09T06:13:30.771Z,13.29
2024-05-09T06:15:30.713Z,13.35
2024-05-09T06:18:31.039Z,13.30
2024-05-09T06:20:35.893Z,13.19
2024-05-09T06:22:30.764Z,13.30
2024-05-09T06:24:30.784Z,13.38
2024-05-09T06:26:30.903Z,13.49
2024-05-09T06:28:30.759Z,13.63
2024-05-09T06:30:38.163Z,13.75
2024-05-09T06:32:30.933Z,13.88
2024-05-09T06:34:30.879Z,13.99
2024-05-09T06:37:30.845Z,13.93
2024-05-09T06:39:30.845Z,14.03
2024-05-09T06:41:30.971Z,14.08
2024-05-09T06:43:30.815Z,14.14
2024-05-09T06:45:30.826Z,14.31
2024-05-09T06:47:31.056Z,14.31
2024-05-09T06:49:30.989Z,14.36
2024-05-09T06:51:30.803Z,14.42
2024-05-09T06:53:30.882Z,14.50
2024-05-09T06:55:30.855Z,14.55
2024-05-09T06:57:30.877Z,14.60
2024-05-09T06:59:30.913Z,14.26
2024-05-09T07:01:30.927Z,14.37
2024-05-09T07:03:30.994Z,14.35
2024-05-09T07:05:30.918Z,14.29
2024-05-09T07:07:30.888Z,14.37
2024-05-09T07:09:30.862Z,14.44
2024-05-09T07:12:31.056Z,14.31
2024-05-09T07:14:31.324Z,14.07
2024-05-09T07:16:30.910Z,14.02
2024-05-09T07:18:31.126Z,13.90
2024-05-09T07:20:34.632Z,13.90
2024-05-09T07:22:30.916Z,14.02
2024-05-09T07:24:30.905Z,14.17
2024-05-09T07:26:30.994Z,14.16
2024-05-09T07:27:53.763Z,14.17
2024-05-09T07:29:31.042Z,14.23
2024-05-09T07:31:32.325Z,14.46
2024-05-09T07:33:31.099Z,14.72
2024-05-09T07:35:31.360Z,14.61
2024-05-09T07:37:30.937Z,14.57
2024-05-09T07:39:31.006Z,14.50
2024-05-09T07:41:31.086Z,14.52
2024-05-09T07:43:30.959Z,14.61
2024-05-09T07:45:47.454Z,14.57
2024-05-09T07:48:57.318Z,14.52
2024-05-09T07:50:01.243Z,14.65
2024-05-09T07:53:08.610Z,14.55
2024-05-09T07:53:32.658Z,14.47
2024-05-09T07:53:40.460Z,14.31
2024-05-09T07:54:31.196Z,14.38
2024-05-09T07:56:31.754Z,14.60
2024-05-09T07:58:30.981Z,14.76
2024-05-09T08:00:32.142Z,14.83
2024-05-09T08:02:31.212Z,14.82
2024-05-09T08:04:31.101Z,14.83
2024-05-09T08:06:31.096Z,14.69
2024-05-09T08:08:32.470Z,14.62
2024-05-09T08:10:31.133Z,14.62
2024-05-09T08:13:31.033Z,14.72
2024-05-09T08:15:31.131Z,14.77
2024-05-09T08:17:31.194Z,14.82
2024-05-09T08:19:31.109Z,14.93
2024-05-09T08:21:31.170Z,14.77
2024-05-09T08:23:31.048Z,14.83
2024-05-09T08:25:31.081Z,14.94
2024-05-09T08:27:31.145Z,15.07
2024-05-09T08:29:31.067Z,15.21
2024-05-09T08:31:31.276Z,15.20
2024-05-09T08:33:31.397Z,15.21
2024-05-09T08:35:31.133Z,15.16
2024-05-09T08:37:36.639Z,15.26
2024-05-09T08:39:31.162Z,15.29
2024-05-09T08:42:31.127Z,15.37
2024-05-09T08:44:31.102Z,15.50
2024-05-09T08:46:31.155Z,15.64
2024-05-09T08:48:31.372Z,15.77
2024-05-09T08:50:37.930Z,15.67
2024-05-09T08:52:31.136Z,15.36
2024-05-09T08:54:31.196Z,15.35
2024-05-09T08:56:31.173Z,15.34
2024-05-09T08:58:31.182Z,15.46
2024-05-09T09:00:36.780Z,15.51
2024-05-09T09:02:31.227Z,15.68
2024-05-09T09:04:31.306Z,15.52
2024-05-09T09:06:31.263Z,15.53
2024-05-09T09:08:31.164Z,15.56
2024-05-09T09:10:32.724Z,15.60
2024-05-09T09:12:31.195Z,15.61
2024-05-09T09:14:31.232Z,15.66
2024-05-09T09:16:31.246Z,15.73
2024-05-09T09:18:31.528Z,15.87
2024-05-09T09:20:36.369Z,15.85
2024-05-09T09:22:32.652Z,15.90
2024-05-09T09:24:31.275Z,16.20
2024-05-09T09:26:31.247Z,16.40
2024-05-09T09:28:31.214Z,16.32
2024-05-09T09:30:36.626Z,16.09
2024-05-09T09:32:31.350Z,15.87
2024-05-09T09:34:31.885Z,15.88
2024-05-09T09:36:31.285Z,15.91
2024-05-09T09:38:31.258Z,15.92
2024-05-09T09:40:33.037Z,15.95
2024-05-09T09:42:31.318Z,15.95
2024-05-09T09:44:31.288Z,15.96
2024-05-09T09:46:31.404Z,15.86
2024-05-09T09:48:31.447Z,15.81
2024-05-09T09:50:34.580Z,15.85
2024-05-09T09:52:31.373Z,15.97
2024-05-09T09:54:31.325Z,16.26
2024-05-09T09:56:31.280Z,16.51
2024-05-09T09:58:31.372Z,16.61
2024-05-09T10:00:33.407Z,16.62
2024-05-09T10:02:31.466Z,16.58
2024-05-09T10:04:31.356Z,16.29
2024-05-09T10:06:31.347Z,16.31
2024-05-09T10:08:31.352Z,16.26
2024-05-09T10:10:32.991Z,16.40
2024-05-09T10:12:31.461Z,16.59
2024-05-09T10:14:31.331Z,16.69
2024-05-09T10:16:31.427Z,16.75
2024-05-09T10:18:32.751Z,16.91
2024-05-09T10:20:32.834Z,17.15
2024-05-09T10:22:31.350Z,17.35
2024-05-09T10:24:31.376Z,17.46
2024-05-09T10:26:31.404Z,17.65
2024-05-09T10:28:31.452Z,18.00
2024-05-09T10:30:36.066Z,18.21
2024-05-09T10:34:31.493Z,18.20
2024-05-09T10:36:33.209Z,18.10
2024-05-09T10:38:31.379Z,17.90
2024-05-09T10:40:32.141Z,18.05
2024-05-09T10:42:31.469Z,18.12
2024-05-09T10:44:31.428Z,18.44
2024-05-09T10:46:31.465Z,18.58
2024-05-09T10:48:31.547Z,18.32
2024-05-09T10:50:34.347Z,18.18
2024-05-09T10:52:31.485Z,18.23
2024-05-09T10:54:31.504Z,18.26
2024-05-09T10:56:31.472Z,18.17
2024-05-09T10:58:31.438Z,17.93
2024-05-09T11:00:35.775Z,18.15
2024-05-09T11:02:31.694Z,18.24
2024-05-09T11:04:31.561Z,18.40
2024-05-09T11:06:31.524Z,18.54
2024-05-09T11:08:31.516Z,18.55
2024-05-09T11:10:34.159Z,18.66
2024-05-09T11:12:31.490Z,18.87
2024-05-09T11:14:31.511Z,18.81
2024-05-09T11:16:31.555Z,18.77
2024-05-09T11:18:35.020Z,18.96
2024-05-09T11:20:34.677Z,18.84
2024-05-09T11:22:31.514Z,19.07
2024-05-09T11:24:31.562Z,18.89
2024-05-09T11:26:31.547Z,18.74
2024-05-09T11:28:31.557Z,18.71
2024-05-09T11:30:32.399Z,18.59
2024-05-09T11:32:31.664Z,18.52
2024-05-09T11:34:31.691Z,18.31
2024-05-09T11:36:31.624Z,18.24
2024-05-09T11:38:31.540Z,18.32
2024-05-09T11:40:34.391Z,18.35
2024-05-09T11:42:31.612Z,18.49
2024-05-09T11:44:31.596Z,18.38
2024-05-09T11:46:31.614Z,18.41
2024-05-09T11:48:32.004Z,18.17
2024-05-09T11:50:35.866Z,18.06
2024-05-09T11:52:31.613Z,17.98
2024-05-09T11:54:31.678Z,18.03
2024-05-09T11:56:31.591Z,18.22
2024-05-09T11:58:31.596Z,18.35
2024-05-09T12:00:36.701Z,18.40
2024-05-09T12:02:31.719Z,18.42
2024-05-09T12:04:31.755Z,18.62
2024-05-09T12:06:31.631Z,18.87
2024-05-09T12:08:31.629Z,18.97
2024-05-09T12:10:34.445Z,19.33
2024-05-09T12:12:33.481Z,19.48
2024-05-09T12:14:31.636Z,19.27
2024-05-09T12:16:32.040Z,19.17
2024-05-09T12:18:31.763Z,19.13
2024-05-09T12:20:37.133Z,19.19
2024-05-09T12:22:31.724Z,19.23
2024-05-09T12:24:31.723Z,19.28
2024-05-09T12:26:31.665Z,19.33
2024-05-09T12:28:31.753Z,19.28
2024-05-09T12:30:37.108Z,19.52
2024-05-09T12:32:31.731Z,20.03
2024-05-09T12:34:31.806Z,20.10
2024-05-09T12:36:31.752Z,20.04
2024-05-09T12:38:31.759Z,19.73
2024-05-09T12:40:36.482Z,19.63
2024-05-09T12:42:33.721Z,19.71
2024-05-09T12:44:31.718Z,19.62
2024-05-09T12:46:31.808Z,19.48
2024-05-09T12:48:31.957Z,19.36
2024-05-09T12:50:33.908Z,19.64
2024-05-09T12:52:31.759Z,19.83
2024-05-09T12:54:31.781Z,19.75
2024-05-09T12:56:31.781Z,19.89
2024-05-09T12:58:31.769Z,20.04
2024-05-09T13:00:34.141Z,19.96
2024-05-09T13:03:31.946Z,19.88
2024-05-09T13:05:32.068Z,19.85
2024-05-09T13:07:31.796Z,19.83
2024-05-09T13:09:31.842Z,19.47
2024-05-09T13:11:31.937Z,19.23
2024-05-09T13:13:31.791Z,19.39
2024-05-09T13:15:31.838Z,19.72
2024-05-09T13:17:31.916Z,20.01
2024-05-09T13:19:31.885Z,20.13
2024-05-09T13:21:31.848Z,19.92
2024-05-09T13:23:31.822Z,19.81
2024-05-09T13:25:31.862Z,19.94
2024-05-09T13:27:31.895Z,20.13
2024-05-09T13:29:31.858Z,20.39
2024-05-09T13:31:31.886Z,20.65
2024-05-09T13:33:32.002Z,20.56
2024-05-09T13:35:31.899Z,20.65
2024-05-09T13:37:31.884Z,20.67
2024-05-09T13:39:31.888Z,20.53
2024-05-09T13:41:33.332Z,20.37
2024-05-09T13:43:31.997Z,20.24
2024-05-09T13:45:32.097Z,20.09
2024-05-09T13:47:31.989Z,20.12
2024-05-09T13:49:31.936Z,20.10
2024-05-09T13:51:31.912Z,20.05
2024-05-09T13:53:31.949Z,20.18
2024-05-09T13:55:31.940Z,20.30
2024-05-09T13:57:31.916Z,20.61
2024-05-09T13:59:31.903Z,20.50
2024-05-09T14:01:32.059Z,20.61
2024-05-09T14:03:32.155Z,20.81
2024-05-09T14:05:32.074Z,20.93
2024-05-09T14:07:31.936Z,21.04
2024-05-09T14:09:31.967Z,21.10
2024-05-09T14:11:32.076Z,21.09
2024-05-09T14:13:31.978Z,20.78
2024-05-09T14:15:32.076Z,20.53
2024-05-09T14:17:32.072Z,20.44
2024-05-09T14:19:32.013Z,20.27
2024-05-09T14:21:32.046Z,20.22
2024-05-09T14:23:31.986Z,20.15
2024-05-09T14:25:32.442Z,20.36
2024-05-09T14:27:32.059Z,20.41
2024-05-09T14:29:32.007Z,20.64
2024-05-09T14:31:32.047Z,20.69
2024-05-09T14:33:32.544Z,20.35
2024-05-09T14:35:32.044Z,20.11
2024-05-09T14:37:32.049Z,19.88
2024-05-09T14:39:32.042Z,20.01
2024-05-09T14:41:32.022Z,20.27
2024-05-09T14:43:32.185Z,20.41
2024-05-09T14:45:32.109Z,20.39
2024-05-09T14:47:32.121Z,20.49
2024-05-09T14:49:32.064Z,20.70
2024-05-09T14:51:32.099Z,20.82
2024-05-09T14:54:32.078Z,20.75
2024-05-09T14:56:32.042Z,20.85
2024-05-09T14:58:32.200Z,20.95
2024-05-09T15:00:35.757Z,20.62
2024-05-09T15:02:32.095Z,20.59
2024-05-09T15:04:32.236Z,20.58
2024-05-09T15:06:32.189Z,20.51
2024-05-09T15:08:32.125Z,20.38
2024-05-09T15:10:35.582Z,20.26
2024-05-09T15:12:32.210Z,20.33
2024-05-09T15:14:32.103Z,19.95
2024-05-09T15:16:32.169Z,19.92
2024-05-09T15:18:32.346Z,19.76
2024-05-09T15:20:35.923Z,19.62
2024-05-09T15:22:32.156Z,19.63
2024-05-09T15:24:32.160Z,19.72
2024-05-09T15:26:32.171Z,19.91
2024-05-09T15:28:32.179Z,19.94
2024-05-09T15:30:33.869Z,20.08
2024-05-09T15:32:33.962Z,20.26
2024-05-09T15:34:32.322Z,20.32
2024-05-09T15:36:32.219Z,20.20
2024-05-09T15:38:32.191Z,20.00
2024-05-09T15:40:38.813Z,19.99
2024-05-09T15:42:32.253Z,19.80
2024-05-09T15:44:32.220Z,19.64
2024-05-09T15:47:32.283Z,19.50
2024-05-09T15:49:32.518Z,19.44
2024-05-09T15:51:32.226Z,19.48
2024-05-09T15:53:32.217Z,19.33
2024-05-09T15:55:32.251Z,19.45
2024-05-09T15:57:32.277Z,19.69
2024-05-09T15:59:32.217Z,19.95
2024-05-09T16:01:32.401Z,20.15
2024-05-09T16:03:32.393Z,20.33
2024-05-09T16:06:32.329Z,20.41
2024-05-09T16:08:32.271Z,20.50
2024-05-09T16:10:34.099Z,20.51
2024-05-09T16:12:32.331Z,20.27
2024-05-09T16:14:32.266Z,20.48
2024-05-09T16:16:32.385Z,20.56
2024-05-09T16:18:32.356Z,20.47
2024-05-09T16:21:32.352Z,20.36
2024-05-09T16:23:32.316Z,20.34
2024-05-09T16:25:32.325Z,20.29
2024-05-09T16:27:32.378Z,20.28
2024-05-09T16:29:32.293Z,20.13
2024-05-09T16:31:32.368Z,19.99
2024-05-09T16:33:32.745Z,19.98
2024-05-09T16:35:32.306Z,19.95
2024-05-09T16:38:32.373Z,20.04
2024-05-09T16:41:32.359Z,20.10
2024-05-09T16:43:32.399Z,19.95
2024-05-09T16:46:33.867Z,20.06
2024-05-09T16:48:32.479Z,20.10
2024-05-09T16:50:34.567Z,20.04
2024-05-09T16:52:32.348Z,20.02
2024-05-09T16:54:32.453Z,20.05
2024-05-09T16:56:32.423Z,20.03
2024-05-09T16:59:32.406Z,20.03
2024-05-09T17:01:32.569Z,20.11
2024-05-09T17:03:32.520Z,19.98
2024-05-09T17:05:32.544Z,19.93
2024-05-09T17:07:32.439Z,19.74
2024-05-09T17:09:32.502Z,19.73
2024-05-09T17:11:32.481Z,19.60
2024-05-09T17:13:32.537Z,19.51
2024-05-09T17:15:33.039Z,19.47
2024-05-09T17:18:32.572Z,19.51
2024-05-09T17:20:35.668Z,19.48
2024-05-09T17:22:32.485Z,19.49
2024-05-09T17:24:32.451Z,19.45
2024-05-09T17:26:32.443Z,19.51
2024-05-09T17:28:32.525Z,19.55
2024-05-09T17:30:36.312Z,19.52
2024-05-09T17:32:32.509Z,19.48
2024-05-09T17:34:32.598Z,19.44
2024-05-09T17:36:32.562Z,19.47
2024-05-09T17:38:32.510Z,19.32
2024-05-09T17:40:35.906Z,19.25
2024-05-09T17:42:32.535Z,19.11
2024-05-09T17:44:32.500Z,18.92
2024-05-09T17:46:32.741Z,18.98
2024-05-09T17:48:32.869Z,18.90
2024-05-09T17:50:35.990Z,18.88
2024-05-09T17:52:32.533Z,18.77
2024-05-09T17:54:32.668Z,18.80
2024-05-09T17:56:32.567Z,18.83
2024-05-09T17:58:32.632Z,18.84
2024-05-09T18:02:32.661Z,18.82
2024-05-09T18:04:33.927Z,18.51
2024-05-09T18:07:32.587Z,18.41
2024-05-09T18:09:32.619Z,18.47
2024-05-09T18:11:32.701Z,18.46
2024-05-09T18:13:32.661Z,18.47
2024-05-09T18:15:32.796Z,18.40
2024-05-09T18:17:32.762Z,18.31
2024-05-09T18:19:32.823Z,18.44
2024-05-09T18:21:32.733Z,18.46
2024-05-09T18:23:32.599Z,18.49
2024-05-09T18:25:32.583Z,18.37
2024-05-09T18:27:32.676Z,18.27
2024-05-09T18:29:32.652Z,18.30
2024-05-09T18:32:32.771Z,18.18
2024-05-09T18:34:32.755Z,18.09
2024-05-09T18:36:32.654Z,18.01
2024-05-09T18:38:32.625Z,18.01
2024-05-09T18:42:32.688Z,18.14
2024-05-09T18:44:32.701Z,18.35
2024-05-09T18:46:32.748Z,18.48
2024-05-09T18:48:32.776Z,18.47
2024-05-09T18:50:37.513Z,18.35
2024-05-09T18:52:32.709Z,18.38
2024-05-09T18:54:32.736Z,18.47
2024-05-09T18:56:32.671Z,18.49
2024-05-09T18:58:32.710Z,18.58
2024-05-09T19:00:36.593Z,18.61
2024-05-09T19:02:32.884Z,18.52
2024-05-09T19:04:32.869Z,18.47
2024-05-09T19:06:32.775Z,18.43
2024-05-09T19:08:32.734Z,18.28
2024-05-09T19:10:34.978Z,18.25
2024-05-09T19:12:32.772Z,18.16
2024-05-09T19:15:32.775Z,18.14
2024-05-09T19:17:32.913Z,17.94
2024-05-09T19:19:32.908Z,17.68
2024-05-09T19:21:32.843Z,17.69
2024-05-09T19:23:37.794Z,17.64
2024-05-09T19:25:32.798Z,17.61
2024-05-09T19:28:32.818Z,17.58
2024-05-09T19:30:39.284Z,17.55
2024-05-09T19:32:32.895Z,17.46
2024-05-09T19:34:32.875Z,17.32
2024-05-09T19:36:32.860Z,17.20
2024-05-09T19:38:32.776Z,17.21
2024-05-09T19:40:34.491Z,17.29
2024-05-09T19:42:32.818Z,17.34
2024-05-09T19:44:32.826Z,17.21
2024-05-09T19:46:32.911Z,17.25
2024-05-09T19:48:32.952Z,17.27
2024-05-09T19:50:40.864Z,17.36
2024-05-09T19:51:34.390Z,17.31
2024-05-09T19:53:32.823Z,17.22
2024-05-09T19:55:32.853Z,17.24
2024-05-09T19:57:32.956Z,17.25
2024-05-09T19:59:32.867Z,17.16
2024-05-09T20:01:33.009Z,17.10
2024-05-09T20:04:33.146Z,17.04
2024-05-09T20:06:32.904Z,16.92
2024-05-09T20:08:32.861Z,16.87
2024-05-09T20:10:35.243Z,16.82
2024-05-09T20:12:32.913Z,16.85
2024-05-09T20:14:32.871Z,16.83
2024-05-09T20:17:32.961Z,16.81
2024-05-09T20:19:33.036Z,16.70
2024-05-09T20:21:32.942Z,16.65
2024-05-09T20:23:32.940Z,16.57
2024-05-09T20:25:32.998Z,16.49
2024-05-09T20:27:32.927Z,16.47
2024-05-09T20:29:32.919Z,16.49
2024-05-09T20:31:32.969Z,16.42
2024-05-09T20:33:33.089Z,16.32
2024-05-09T20:35:33.491Z,16.32
2024-05-09T20:37:32.932Z,16.32
2024-05-09T20:39:32.972Z,16.21
2024-05-09T20:42:33.014Z,16.18
2024-05-09T20:44:32.951Z,16.17
2024-05-09T20:46:32.957Z,16.25
2024-05-09T20:49:33.079Z,16.25
2024-05-09T20:51:33.016Z,16.07
2024-05-09T20:53:33.001Z,16.14
2024-05-09T20:55:32.985Z,16.17
2024-05-09T20:57:33.014Z,16.14
2024-05-09T20:59:32.992Z,16.17
2024-05-09T21:01:33.085Z,16.22
2024-05-09T21:03:33.268Z,16.29
2024-05-09T21:05:35.300Z,16.34
2024-05-09T21:07:33.015Z,16.30
2024-05-09T21:09:33.151Z,16.26
2024-05-09T21:11:33.098Z,16.27
2024-05-09T21:15:33.101Z,16.30
2024-05-09T21:17:33.145Z,16.35
2024-05-09T21:19:33.074Z,16.41
2024-05-09T21:21:33.132Z,16.39
2024-05-09T21:23:33.048Z,16.30
2024-05-09T21:26:33.092Z,16.32
2024-05-09T21:29:33.109Z,16.30
2024-05-09T21:32:33.146Z,16.28
2024-05-09T21:34:33.185Z,16.28
2024-05-09T21:36:33.104Z,16.30
2024-05-09T21:38:33.084Z,16.30
2024-05-09T21:40:35.486Z,16.32
2024-05-09T21:42:34.764Z,16.27
2024-05-09T21:44:33.108Z,16.28
2024-05-09T21:46:33.271Z,16.27
2024-05-09T21:48:33.274Z,16.24
2024-05-09T21:50:39.421Z,16.20
2024-05-09T21:52:33.126Z,16.16
2024-05-09T21:55:33.205Z,16.11
2024-05-09T21:57:33.137Z,16.08
2024-05-09T21:59:33.152Z,16.02
2024-05-09T22:02:33.191Z,16.02
2024-05-09T22:04:33.212Z,16.03
2024-05-09T22:06:33.250Z,16.02
2024-05-09T22:08:33.190Z,15.95
2024-05-09T22:10:35.647Z,15.91
2024-05-09T22:12:33.229Z,15.90
2024-05-09T22:14:33.207Z,15.88
2024-05-09T22:16:33.263Z,15.85
2024-05-09T22:18:33.332Z,15.78
2024-05-09T22:20:37.513Z,15.70
2024-05-09T22:22:33.194Z,15.59
2024-05-09T22:24:33.281Z,15.48
2024-05-09T22:26:33.234Z,15.35
2024-05-09T22:28:33.285Z,15.24
2024-05-09T22:30:37.475Z,15.15
2024-05-09T22:32:33.318Z,15.04
2024-05-09T22:34:33.306Z,14.97
2024-05-09T22:36:33.286Z,14.85
2024-05-09T22:40:42.832Z,14.75
2024-05-09T22:41:33.267Z,14.69
2024-05-09T22:44:33.233Z,14.67
2024-05-09T22:46:33.399Z,14.70
2024-05-09T22:49:33.378Z,14.72
2024-05-09T22:51:33.331Z,14.76
2024-05-09T22:53:33.282Z,14.81
2024-05-09T22:55:33.336Z,14.86
2024-05-09T22:57:33.334Z,14.91
2024-05-09T22:59:33.311Z,14.95
2024-05-09T23:01:33.442Z,14.91
2024-05-09T23:03:33.508Z,14.84
2024-05-09T23:05:33.456Z,14.81
2024-05-09T23:07:33.352Z,14.81
2024-05-09T23:09:33.362Z,14.84
2024-05-09T23:11:33.375Z,14.77
2024-05-09T23:13:33.411Z,14.68
2024-05-09T23:15:33.581Z,14.64
2024-05-09T23:17:33.607Z,14.62
2024-05-09T23:19:33.438Z,14.63
2024-05-09T23:22:33.386Z,14.61
2024-05-09T23:24:33.411Z,14.53
2024-05-09T23:27:33.408Z,14.51
2024-05-09T23:29:33.368Z,14.45
2024-05-09T23:31:33.474Z,14.37
2024-05-09T23:33:35.335Z,14.26
2024-05-09T23:35:33.399Z,14.12
2024-05-09T23:37:33.403Z,14.04
2024-05-09T23:39:33.467Z,13.90
2024-05-09T23:41:33.441Z,13.71
2024-05-09T23:43:33.472Z,13.72
2024-05-09T23:45:33.618Z,13.78
2024-05-09T23:47:33.512Z,13.82
2024-05-09T23:49:33.558Z,13.87
2024-05-09T23:51:33.484Z,13.92
2024-05-09T23:53:33.430Z,13.97
2024-05-09T23:55:33.432Z,13.97
2024-05-09T23:57:33.488Z,13.76
2024-05-09T23:59:33.469Z,13.64
